Dht Chris — V7DA6 — position and weather

sailwx.info

Track history (hours):
 
Tides and Currents Weather Stations Pressure Air Temp Water Temp Dewpoint Dewpoint Depression Visibility Wind Speed Wind Dir Waves Ship Positions

Dht Chris

Last reported at 2018-Apr-18 16:25 UTC. Time now 2018-Apr-19 19:33 UTC.
Position N 37°09' E 015°38'.

Length 334 m; draft 11 m.

Type: Tanker. MMSI: 538001594.

Date/timePositionNaut miles runAvg speedWind from/ knotsBaromVisibWave heightAir tempDewpointWater temp
2018-Apr-18 16:25N 37°09' E 015°38'15 3.1
2018-Apr-18 11:39N 37°22' E 015°32'0 1.2
2018-Apr-18 11:20N 37°22' E 015°32'2 1.0
2018-Apr-18 09:20N 37°21' E 015°34'1 0.9
2018-Apr-18 08:30N 37°20' E 015°35'0 0.8
2018-Apr-18 07:56N 37°20' E 015°35'7 0.5
2018-Apr-17 18:08N 37°17' E 015°43'0 0.2
2018-Apr-17 18:00N 37°17' E 015°43'0 0.2
2018-Apr-17 17:30N 37°17' E 015°43'0 0.3
2018-Apr-17 17:00N 37°17' E 015°43'0 0.4
2018-Apr-17 16:29N 37°17' E 015°43'0 0.3
2018-Apr-17 16:00N 37°17' E 015°43'0 0.4
2018-Apr-17 14:49N 37°16' E 015°44'0 0.5
2018-Apr-17 14:27N 37°16' E 015°44'0 0.5
2018-Apr-17 14:00N 37°16' E 015°44'0 0.4
2018-Apr-17 13:30N 37°16' E 015°44'0 0.4
2018-Apr-17 13:00N 37°16' E 015°45'0 0.4
2018-Apr-17 12:30N 37°16' E 015°45'0 0.4
2018-Apr-17 11:34N 37°16' E 015°45'0 0.4
2018-Apr-17 11:30N 37°16' E 015°45'0 0.2
2018-Apr-17 10:05N 37°15' E 015°46'0 0.2
2018-Apr-17 09:46N 37°15' E 015°46'0 0.2
2018-Apr-17 09:30N 37°15' E 015°45'0 0.5
2018-Apr-17 08:49N 37°15' E 015°45'0 1.1
2018-Apr-17 08:28N 37°15' E 015°45'1 1.9
2018-Apr-17 08:00N 37°15' E 015°44'5 4.7
2018-Apr-17 06:56N 37°14' E 015°37'3 0.5
2018-Apr-17 00:52N 37°17' E 015°35'0 0.3
2018-Apr-17 00:21N 37°17' E 015°35'8 2.3
2018-Apr-16 21:01N 37°24' E 015°31'0 7.3
2018-Apr-16 21:00N 37°24' E 015°31'4 6.4
2018-Apr-16 20:26N 37°27' E 015°30'1 1.2
2018-Apr-16 19:58N 37°27' E 015°29'1 1.0
2018-Apr-16 18:57N 37°27' E 015°30'1 0.9
2018-Apr-16 17:57N 37°26' E 015°31'1 1.1
2018-Apr-16 17:24N 37°26' E 015°32'0 0.9
2018-Apr-16 16:58N 37°26' E 015°32'0 0.9
2018-Apr-16 16:28N 37°26' E 015°33'8 1.1
2018-Apr-16 09:22N 37°20' E 015°40'0 1.2
2018-Apr-16 09:00N 37°20' E 015°40'1 1.0
2018-Apr-16 07:47N 37°19' E 015°41'2 1.4
2018-Apr-16 06:35N 37°18' E 015°42'0 2.6
2018-Apr-16 06:29N 37°18' E 015°42'1 1.5
2018-Apr-16 05:55N 37°18' E 015°43'1 1.4
2018-Apr-16 05:20N 37°17' E 015°44'1 1.7
2018-Apr-16 04:39N 37°17' E 015°46'9 1.3
2018-Apr-15 21:55N 37°26' E 015°45'3 2.9
2018-Apr-15 21:00N 37°27' E 015°42'2 3.2
2018-Apr-15 20:28N 37°26' E 015°41'1 2.4
2018-Apr-15 20:00N 37°26' E 015°39'1 2.3
2018-Apr-15 19:30N 37°27' E 015°38'12 1.3
2018-Apr-15 10:07N 37°15' E 015°43'0 1.9
2018-Apr-15 09:57N 37°15' E 015°43'1 1.2
2018-Apr-15 09:00N 37°14' E 015°44'8 0.6
2018-Apr-14 19:14N 37°21' E 015°40'0 1.7
2018-Apr-14 19:00N 37°22' E 015°40'1 1.7
2018-Apr-14 18:23N 37°23' E 015°41'1 1.7
2018-Apr-14 17:59N 37°23' E 015°41'1 1.6
2018-Apr-14 17:29N 37°24' E 015°42'1 1.5
2018-Apr-14 17:00N 37°24' E 015°41'2 3.6
2018-Apr-14 16:30N 37°24' E 015°39'5 4.0
2018-Apr-14 15:14N 37°26' E 015°33'1 4.3
2018-Apr-14 15:00N 37°26' E 015°32'1 1.1
2018-Apr-14 13:59N 37°26' E 015°30'1 2.5
2018-Apr-14 13:24N 37°25' E 015°32'7 2.5
2018-Apr-14 10:41N 37°22' E 015°39'2 2.5
2018-Apr-14 10:02N 37°21' E 015°41'0 2.3
2018-Apr-14 09:59N 37°21' E 015°41'1 2.2
2018-Apr-14 09:30N 37°20' E 015°42'5 8.3
2018-Apr-14 08:55N 37°16' E 015°44'910.1
2018-Apr-14 08:03N 37°07' E 015°47'7 9.3
2018-Apr-14 07:18N 37°00' E 015°49'0 0.4
2018-Apr-14 06:17N 37°01' E 015°49'2 1.2
2018-Apr-14 04:22N 37°02' E 015°51'1 1.3
2018-Apr-14 03:55N 37°03' E 015°52'4 1.2
2018-Apr-14 00:36N 37°06' E 015°55'0 0.8
2018-Apr-14 00:28N 37°06' E 015°55'1 0.5
2018-Apr-13 22:20N 37°07' E 015°55'0 0.4
2018-Apr-13 22:01N 37°07' E 015°56'0 0.4
2018-Apr-13 21:28N 37°07' E 015°56'0 0.4
2018-Apr-13 21:00N 37°07' E 015°56'0 0.3
2018-Apr-13 20:28N 37°07' E 015°56'1 0.4
2018-Apr-13 18:08N 37°07' E 015°55'1 2.1
2018-Apr-13 17:51N 37°08' E 015°55'10 6.1
2018-Apr-13 16:09N 37°16' E 015°46'1 9.8
2018-Apr-13 16:00N 37°16' E 015°44'9 7.8
2018-Apr-13 14:51N 37°21' E 015°34'0 0.4
2018-Apr-13 13:44N 37°20' E 015°34'0 0.4
2018-Apr-13 12:55N 37°20' E 015°34'1 1.6
2018-Apr-13 12:26N 37°19' E 015°34'4 4.1
2018-Apr-13 11:30N 37°20' E 015°29'1 1.2
2018-Apr-13 11:00N 37°21' E 015°29'0 0.5
2018-Apr-13 10:13N 37°21' E 015°30'1 0.6
2018-Apr-13 08:19N 37°21' E 015°31'1 0.6
2018-Apr-13 06:59N 37°22' E 015°32'1 0.7
2018-Apr-13 05:17N 37°23' E 015°32'0 0.9
2018-Apr-13 04:57N 37°23' E 015°33'4 0.5
2018-Apr-12 21:21N 37°25' E 015°28'1 0.4
2018-Apr-12 19:58N 37°25' E 015°28'2 0.4
2018-Apr-12 14:28N 37°25' E 015°31'0 0.5
2018-Apr-12 14:00N 37°25' E 015°31'1 1.2
2018-Apr-12 13:00N 37°24' E 015°30'12 0.5
2018-Apr-11 12:20N 37°13' E 015°37'1 0.7
2018-Apr-11 10:35N 37°12' E 015°38'4 0.3
2018-Apr-10 23:49N 37°15' E 015°40'  
Track history (hours):
 
Tides and Currents Weather Stations Pressure Air Temp Water Temp Dewpoint Dewpoint Depression Visibility Wind Speed Wind Dir Waves Ship Positions

Dht Chris

Last reported at 2018-Apr-18 16:25 UTC. Time now 2018-Apr-19 19:33 UTC.
Position N 37°09' E 015°38'.

Length 334 m; draft 11 m.

Type: Tanker. MMSI: 538001594.

Date/timePositionNaut miles runAvg speedWind from/ knotsBaromVisibWave heightAir tempDewpointWater temp
2018-Apr-18 16:25N 37°09' E 015°38'15 3.1
2018-Apr-18 11:39N 37°22' E 015°32'0 1.2
2018-Apr-18 11:20N 37°22' E 015°32'2 1.0
2018-Apr-18 09:20N 37°21' E 015°34'1 0.9
2018-Apr-18 08:30N 37°20' E 015°35'0 0.8
2018-Apr-18 07:56N 37°20' E 015°35'7 0.5
2018-Apr-17 18:08N 37°17' E 015°43'0 0.2
2018-Apr-17 18:00N 37°17' E 015°43'0 0.2
2018-Apr-17 17:30N 37°17' E 015°43'0 0.3
2018-Apr-17 17:00N 37°17' E 015°43'0 0.4
2018-Apr-17 16:29N 37°17' E 015°43'0 0.3
2018-Apr-17 16:00N 37°17' E 015°43'0 0.4
2018-Apr-17 14:49N 37°16' E 015°44'0 0.5
2018-Apr-17 14:27N 37°16' E 015°44'0 0.5
2018-Apr-17 14:00N 37°16' E 015°44'0 0.4
2018-Apr-17 13:30N 37°16' E 015°44'0 0.4
2018-Apr-17 13:00N 37°16' E 015°45'0 0.4
2018-Apr-17 12:30N 37°16' E 015°45'0 0.4
2018-Apr-17 11:34N 37°16' E 015°45'0 0.4
2018-Apr-17 11:30N 37°16' E 015°45'0 0.2
2018-Apr-17 10:05N 37°15' E 015°46'0 0.2
2018-Apr-17 09:46N 37°15' E 015°46'0 0.2
2018-Apr-17 09:30N 37°15' E 015°45'0 0.5
2018-Apr-17 08:49N 37°15' E 015°45'0 1.1
2018-Apr-17 08:28N 37°15' E 015°45'1 1.9
2018-Apr-17 08:00N 37°15' E 015°44'5 4.7
2018-Apr-17 06:56N 37°14' E 015°37'3 0.5
2018-Apr-17 00:52N 37°17' E 015°35'0 0.3
2018-Apr-17 00:21N 37°17' E 015°35'8 2.3
2018-Apr-16 21:01N 37°24' E 015°31'0 7.3
2018-Apr-16 21:00N 37°24' E 015°31'4 6.4
2018-Apr-16 20:26N 37°27' E 015°30'1 1.2
2018-Apr-16 19:58N 37°27' E 015°29'1 1.0
2018-Apr-16 18:57N 37°27' E 015°30'1 0.9
2018-Apr-16 17:57N 37°26' E 015°31'1 1.1
2018-Apr-16 17:24N 37°26' E 015°32'0 0.9
2018-Apr-16 16:58N 37°26' E 015°32'0 0.9
2018-Apr-16 16:28N 37°26' E 015°33'8 1.1
2018-Apr-16 09:22N 37°20' E 015°40'0 1.2
2018-Apr-16 09:00N 37°20' E 015°40'1 1.0
2018-Apr-16 07:47N 37°19' E 015°41'2 1.4
2018-Apr-16 06:35N 37°18' E 015°42'0 2.6
2018-Apr-16 06:29N 37°18' E 015°42'1 1.5
2018-Apr-16 05:55N 37°18' E 015°43'1 1.4
2018-Apr-16 05:20N 37°17' E 015°44'1 1.7
2018-Apr-16 04:39N 37°17' E 015°46'9 1.3
2018-Apr-15 21:55N 37°26' E 015°45'3 2.9
2018-Apr-15 21:00N 37°27' E 015°42'2 3.2
2018-Apr-15 20:28N 37°26' E 015°41'1 2.4
2018-Apr-15 20:00N 37°26' E 015°39'1 2.3
2018-Apr-15 19:30N 37°27' E 015°38'12 1.3
2018-Apr-15 10:07N 37°15' E 015°43'0 1.9
2018-Apr-15 09:57N 37°15' E 015°43'1 1.2
2018-Apr-15 09:00N 37°14' E 015°44'8 0.6
2018-Apr-14 19:14N 37°21' E 015°40'0 1.7
2018-Apr-14 19:00N 37°22' E 015°40'1 1.7
2018-Apr-14 18:23N 37°23' E 015°41'1 1.7
2018-Apr-14 17:59N 37°23' E 015°41'1 1.6
2018-Apr-14 17:29N 37°24' E 015°42'1 1.5
2018-Apr-14 17:00N 37°24' E 015°41'2 3.6
2018-Apr-14 16:30N 37°24' E 015°39'5 4.0
2018-Apr-14 15:14N 37°26' E 015°33'1 4.3
2018-Apr-14 15:00N 37°26' E 015°32'1 1.1
2018-Apr-14 13:59N 37°26' E 015°30'1 2.5
2018-Apr-14 13:24N 37°25' E 015°32'7 2.5
2018-Apr-14 10:41N 37°22' E 015°39'2 2.5
2018-Apr-14 10:02N 37°21' E 015°41'0 2.3
2018-Apr-14 09:59N 37°21' E 015°41'1 2.2
2018-Apr-14 09:30N 37°20' E 015°42'5 8.3
2018-Apr-14 08:55N 37°16' E 015°44'910.1
2018-Apr-14 08:03N 37°07' E 015°47'7 9.3
2018-Apr-14 07:18N 37°00' E 015°49'0 0.4
2018-Apr-14 06:17N 37°01' E 015°49'2 1.2
2018-Apr-14 04:22N 37°02' E 015°51'1 1.3
2018-Apr-14 03:55N 37°03' E 015°52'4 1.2
2018-Apr-14 00:36N 37°06' E 015°55'0 0.8
2018-Apr-14 00:28N 37°06' E 015°55'1 0.5
2018-Apr-13 22:20N 37°07' E 015°55'0 0.4
2018-Apr-13 22:01N 37°07' E 015°56'0 0.4
2018-Apr-13 21:28N 37°07' E 015°56'0 0.4
2018-Apr-13 21:00N 37°07' E 015°56'0 0.3
2018-Apr-13 20:28N 37°07' E 015°56'1 0.4
2018-Apr-13 18:08N 37°07' E 015°55'1 2.1
2018-Apr-13 17:51N 37°08' E 015°55'10 6.1
2018-Apr-13 16:09N 37°16' E 015°46'1 9.8
2018-Apr-13 16:00N 37°16' E 015°44'9 7.8
2018-Apr-13 14:51N 37°21' E 015°34'0 0.4
2018-Apr-13 13:44N 37°20' E 015°34'0 0.4
2018-Apr-13 12:55N 37°20' E 015°34'1 1.6
2018-Apr-13 12:26N 37°19' E 015°34'4 4.1
2018-Apr-13 11:30N 37°20' E 015°29'1 1.2
2018-Apr-13 11:00N 37°21' E 015°29'0 0.5
2018-Apr-13 10:13N 37°21' E 015°30'1 0.6
2018-Apr-13 08:19N 37°21' E 015°31'1 0.6
2018-Apr-13 06:59N 37°22' E 015°32'1 0.7
2018-Apr-13 05:17N 37°23' E 015°32'0 0.9
2018-Apr-13 04:57N 37°23' E 015°33'4 0.5
2018-Apr-12 21:21N 37°25' E 015°28'1 0.4
2018-Apr-12 19:58N 37°25' E 015°28'2 0.4
2018-Apr-12 14:28N 37°25' E 015°31'0 0.5
2018-Apr-12 14:00N 37°25' E 015°31'1 1.2
2018-Apr-12 13:00N 37°24' E 015°30'12 0.5
2018-Apr-11 12:20N 37°13' E 015°37'1 0.7
2018-Apr-11 10:35N 37°12' E 015°38'4 0.3
2018-Apr-10 23:49N 37°15' E 015°40'  

Dump ship's entire track history